Aeroporto :
LOGIN :

Iscrizione | Disclaimer

   EN    FR    IT 

 










Sommario :    VFR   VFR Marginale   IFR   IFR Intensivo   IFR Molto Intensivo
Visibilità : 
Base nubi : 
>= 8 km
>= 3000ft
5 / 8 km
1000 / 3000 ft
1500m / 5 km
500 / 1000 ft
800 / 1500m
200 / 500 ft
< 800m
< 200 ft
Simboli :   Temporali  Nebbia  Neve Forte  Precipitazioni Forti  Vento > 20 kt
SIGMETs :   Varie  Temporali  Ghiacco  Turbolenza  Onda orograficha  Ceneri Vulcaniche






- Altitudine del aeroporto : 245 ft
- Codice IATA : BIQ


LFBZ - Biarritz

ULTIMO METAR :
  • 100530Z AUTO 34003KT 9999 OVC046 20/16 Q1019 NOSIG

METARs OBSOLETI :
  • 100500Z AUTO 32004KT 9999 FEW017 OVC045 19/16 Q1019 NOSIG
  • 100430Z AUTO 33004KT 9999 FEW014 SCT026 BKN046 19/16 Q1019 NOSIG
  • 100400Z AUTO 32004KT 9999 SCT016 BKN022 BKN027 19/16 Q1019 TEMPO 4000 BR BKN007
  • 100330Z AUTO 31005KT 9999 FEW015 BKN025 BKN140 19/16 Q1019 TEMPO 4000 BR BKN007
  • 100300Z AUTO 30004KT 9999 FEW015 BKN023 OVC140 19/16 Q1019 TEMPO 4000 BR BKN007

TAF TAF LFBZ
Valido dal 10 a 06 ore il 11 a 06 ore UTC


100500Z 1006/1106 27005KT 9999 BKN020
BECMG 1011/1013 33010KT
BECMG 1102/1104 VRB03KT



MetMap, La meteo Aeronautica in un colpo d'occhio ! - Copyright ORBIFLY Dicembre 2007 - Disclaimer

ORBIFLY MET'MAP TEAM :

Programmazione e sviluppo : Alexandra Zaïnal
Concezione : Baudouin d'Aumeries
Aiuto per la programmazione : Marc-Olivier Méhu
Supporto tecnico e logistico : Manuel Goepfert
Aiuto per la traduzione : Arnaldo La Scala

Contatto : metmap@orbifly.com




FONTI E CREDITI :

   NOAA